createdAt,value
2023-05-10T00:01:44.745Z,12.40
2023-05-10T00:11:48.329Z,10.60
2023-05-10T00:21:51.874Z,11.30
2023-05-10T00:31:55.395Z,11.20
2023-05-10T00:41:58.996Z,13.50
2023-05-10T00:52:04.343Z,9.90
2023-05-10T01:03:11.107Z,9.50
2023-05-10T01:13:20.100Z,10.10
2023-05-10T01:23:46.602Z,9.60
2023-05-10T01:34:17.647Z,8.90
2023-05-10T01:44:42.758Z,9.30
2023-05-10T01:54:53.287Z,9.40
2023-05-10T02:05:59.047Z,9.30
2023-05-10T02:16:06.415Z,11.30
2023-05-10T02:26:11.595Z,10.60
2023-05-10T02:36:16.727Z,10.40
2023-05-10T02:46:20.485Z,9.90
2023-05-10T02:57:27.913Z,10.90
2023-05-10T03:07:31.563Z,10.70
2023-05-10T03:17:48.683Z,10.50
2023-05-10T03:28:04.946Z,10.10
2023-05-10T03:38:31.072Z,14.00
2023-05-10T03:48:42.840Z,11.40
2023-05-10T03:59:27.020Z,8.20
2023-05-10T04:09:30.834Z,7.70
2023-05-10T04:19:34.528Z,6.00
2023-05-10T04:29:38.179Z,6.40
2023-05-10T04:39:42.506Z,5.10
2023-05-10T04:50:08.841Z,4.10
2023-05-10T05:00:13.399Z,3.60
2023-05-10T05:11:17.796Z,3.10
2023-05-10T05:21:21.479Z,5.90
2023-05-10T05:31:25.262Z,6.00
2023-05-10T05:41:28.774Z,6.00
2023-05-10T05:51:32.460Z,7.30
2023-05-10T06:01:36.844Z,6.10
2023-05-10T06:11:40.384Z,7.00
2023-05-10T06:21:46.666Z,6.70
2023-05-10T06:31:50.356Z,6.00
2023-05-10T06:41:54.068Z,7.30
2023-05-10T06:51:57.727Z,6.40
2023-05-10T07:02:02.918Z,8.30
2023-05-10T07:12:08.232Z,6.90
2023-05-10T07:22:14.176Z,7.20
2023-05-10T07:32:17.722Z,11.00
2023-05-10T07:42:22.837Z,7.60
2023-05-10T07:52:26.661Z,7.20
2023-05-10T08:03:30.928Z,14.30
2023-05-10T08:13:35.317Z,5.90
2023-05-10T08:23:38.798Z,5.60
2023-05-10T08:33:50.579Z,7.10
2023-05-10T08:43:55.190Z,10.20
2023-05-10T08:54:21.070Z,7.00
2023-05-10T09:04:24.749Z,15.90
2023-05-10T09:14:28.848Z,6.20
2023-05-10T09:24:32.331Z,5.30
2023-05-10T09:34:41.368Z,6.70
2023-05-10T09:44:47.441Z,4.90
2023-05-10T09:55:35.265Z,6.40
2023-05-10T10:05:41.914Z,5.90
2023-05-10T10:15:46.039Z,7.10
2023-05-10T10:25:50.718Z,5.60
2023-05-10T10:35:55.745Z,9.30
2023-05-10T10:46:18.406Z,6.00
2023-05-10T10:57:03.233Z,10.90
2023-05-10T11:07:52.307Z,5.40
2023-05-10T11:17:57.056Z,8.20
2023-05-10T11:28:05.855Z,8.00
2023-05-10T11:38:29.659Z,9.60
2023-05-10T11:48:34.673Z,6.90
2023-05-10T11:58:40.254Z,6.50
2023-05-10T12:09:08.412Z,12.50
2023-05-10T12:19:12.669Z,7.50
2023-05-10T12:29:18.916Z,8.00
2023-05-10T12:39:22.652Z,5.90
2023-05-10T12:49:26.176Z,5.40
2023-05-10T12:59:50.311Z,6.70
2023-05-10T13:09:55.631Z,7.10
2023-05-10T13:19:59.222Z,6.10
2023-05-10T13:30:06.357Z,5.10
2023-05-10T13:40:10.159Z,6.80
2023-05-10T13:50:13.785Z,6.00
2023-05-10T14:00:18.032Z,6.40
2023-05-10T14:10:21.709Z,5.20
2023-05-10T14:20:25.547Z,7.20
2023-05-10T14:30:29.266Z,6.10
2023-05-10T14:40:33.017Z,5.20
2023-05-10T14:50:37.530Z,4.70
2023-05-10T15:00:44.276Z,4.80
2023-05-10T15:10:48.955Z,4.90
2023-05-10T15:21:53.420Z,5.90
2023-05-10T15:31:57.052Z,5.70
2023-05-10T15:42:00.804Z,5.10
2023-05-10T15:52:04.429Z,4.70
2023-05-10T16:02:48.915Z,4.90
2023-05-10T16:12:54.291Z,6.80
2023-05-10T16:23:59.832Z,4.90
2023-05-10T16:34:03.715Z,7.10
2023-05-10T16:44:07.357Z,8.40
2023-05-10T16:54:11.120Z,7.30
2023-05-10T17:04:15.509Z,8.00
2023-05-10T17:14:19.511Z,7.50
2023-05-10T17:24:23.121Z,6.10
2023-05-10T17:34:26.790Z,5.80
2023-05-10T17:45:31.196Z,6.80
2023-05-10T17:55:35.179Z,5.60
2023-05-10T18:05:39.969Z,12.30
2023-05-10T18:16:25.246Z,14.20
2023-05-10T18:26:29.575Z,25.10
2023-05-10T18:37:14.449Z,30.60
2023-05-10T18:48:23.708Z,28.40
2023-05-10T18:59:35.298Z,18.60
2023-05-10T19:09:38.908Z,14.00
2023-05-10T19:19:43.620Z,12.80
2023-05-10T20:04:46.755Z,7.10
2023-05-10T20:26:41.762Z,9.00
2023-05-10T20:51:03.698Z,13.70
2023-05-10T21:15:00.319Z,9.50
2023-05-10T22:29:46.852Z,12.50
2023-05-10T22:40:13.824Z,11.00
2023-05-10T22:50:28.435Z,11.00
2023-05-10T23:00:45.503Z,11.50
2023-05-10T23:11:05.842Z,9.30
2023-05-10T23:21:40.094Z,9.00
2023-05-10T23:32:30.334Z,8.60
2023-05-10T23:54:55.649Z,7.10
